sensor_id;sensor_type;location;lat;lon;timestamp;temperature;humidity
4425;DHT22;2225;53.568;13.266;2023-02-08T00:00:54;1.80;91.90
4425;DHT22;2225;53.568;13.266;2023-02-08T00:03:21;1.80;91.90
4425;DHT22;2225;53.568;13.266;2023-02-08T00:05:48;1.80;91.90
4425;DHT22;2225;53.568;13.266;2023-02-08T00:08:15;1.70;91.80
4425;DHT22;2225;53.568;13.266;2023-02-08T00:10:43;1.70;91.90
4425;DHT22;2225;53.568;13.266;2023-02-08T00:13:10;1.70;92.00
4425;DHT22;2225;53.568;13.266;2023-02-08T00:15:41;1.70;92.00
4425;DHT22;2225;53.568;13.266;2023-02-08T00:18:08;1.60;92.10
4425;DHT22;2225;53.568;13.266;2023-02-08T00:20:38;1.60;92.10
4425;DHT22;2225;53.568;13.266;2023-02-08T00:23:06;1.60;92.50
4425;DHT22;2225;53.568;13.266;2023-02-08T00:25:34;1.60;92.20
4425;DHT22;2225;53.568;13.266;2023-02-08T00:28:01;1.60;92.50
4425;DHT22;2225;53.568;13.266;2023-02-08T00:30:30;1.50;92.20
4425;DHT22;2225;53.568;13.266;2023-02-08T00:32:58;1.50;92.30
4425;DHT22;2225;53.568;13.266;2023-02-08T00:35:27;1.50;92.30
4425;DHT22;2225;53.568;13.266;2023-02-08T00:37:55;1.50;92.30
4425;DHT22;2225;53.568;13.266;2023-02-08T00:40:23;1.50;92.30
4425;DHT22;2225;53.568;13.266;2023-02-08T00:42:50;1.50;92.30
4425;DHT22;2225;53.568;13.266;2023-02-08T00:45:17;1.40;92.20
4425;DHT22;2225;53.568;13.266;2023-02-08T00:47:44;1.40;92.20
4425;DHT22;2225;53.568;13.266;2023-02-08T00:50:11;1.40;92.20
4425;DHT22;2225;53.568;13.266;2023-02-08T00:52:38;1.40;92.30
4425;DHT22;2225;53.568;13.266;2023-02-08T00:55:05;1.40;92.40
4425;DHT22;2225;53.568;13.266;2023-02-08T00:57:33;1.40;92.50
4425;DHT22;2225;53.568;13.266;2023-02-08T01:00:00;1.40;92.50
4425;DHT22;2225;53.568;13.266;2023-02-08T01:02:27;1.40;92.50
4425;DHT22;2225;53.568;13.266;2023-02-08T01:04:54;1.30;92.40
4425;DHT22;2225;53.568;13.266;2023-02-08T01:07:21;1.30;92.40
4425;DHT22;2225;53.568;13.266;2023-02-08T01:09:48;1.30;92.40
4425;DHT22;2225;53.568;13.266;2023-02-08T01:12:15;1.30;92.50
4425;DHT22;2225;53.568;13.266;2023-02-08T01:14:42;1.30;92.50
4425;DHT22;2225;53.568;13.266;2023-02-08T01:17:09;1.30;92.40
4425;DHT22;2225;53.568;13.266;2023-02-08T01:19:36;1.30;92.40
4425;DHT22;2225;53.568;13.266;2023-02-08T01:22:03;1.20;92.30
4425;DHT22;2225;53.568;13.266;2023-02-08T01:24:31;1.20;92.30
4425;DHT22;2225;53.568;13.266;2023-02-08T01:26:58;1.20;92.20
4425;DHT22;2225;53.568;13.266;2023-02-08T01:29:24;1.20;92.20
4425;DHT22;2225;53.568;13.266;2023-02-08T01:31:51;1.20;92.20
4425;DHT22;2225;53.568;13.266;2023-02-08T01:34:19;1.20;92.20
4425;DHT22;2225;53.568;13.266;2023-02-08T01:36:46;1.10;92.30
4425;DHT22;2225;53.568;13.266;2023-02-08T01:39:13;1.10;92.40
4425;DHT22;2225;53.568;13.266;2023-02-08T01:41:43;1.10;92.50
4425;DHT22;2225;53.568;13.266;2023-02-08T01:46:42;1.10;92.40
4425;DHT22;2225;53.568;13.266;2023-02-08T01:52:11;1.00;92.40
4425;DHT22;2225;53.568;13.266;2023-02-08T01:54:50;1.00;92.50
4425;DHT22;2225;53.568;13.266;2023-02-08T01:57:25;1.00;92.40
4425;DHT22;2225;53.568;13.266;2023-02-08T02:00:16;1.00;92.50
4425;DHT22;2225;53.568;13.266;2023-02-08T02:02:45;1.00;92.60
4425;DHT22;2225;53.568;13.266;2023-02-08T02:05:15;0.90;92.50
4425;DHT22;2225;53.568;13.266;2023-02-08T02:07:43;0.90;92.50
4425;DHT22;2225;53.568;13.266;2023-02-08T02:10:25;0.90;92.50
4425;DHT22;2225;53.568;13.266;2023-02-08T02:13:09;0.90;92.60
4425;DHT22;2225;53.568;13.266;2023-02-08T02:15:43;0.90;92.60
4425;DHT22;2225;53.568;13.266;2023-02-08T02:18:20;0.80;92.50
4425;DHT22;2225;53.568;13.266;2023-02-08T02:33:03;0.70;92.70
4425;DHT22;2225;53.568;13.266;2023-02-08T02:36:14;0.70;92.70
4425;DHT22;2225;53.568;13.266;2023-02-08T02:45:20;0.60;92.60
4425;DHT22;2225;53.568;13.266;2023-02-08T02:48:10;0.60;92.60
4425;DHT22;2225;53.568;13.266;2023-02-08T02:50:44;0.60;92.70
4425;DHT22;2225;53.568;13.266;2023-02-08T02:56:14;0.50;92.70
4425;DHT22;2225;53.568;13.266;2023-02-08T02:58:48;0.50;92.80
4425;DHT22;2225;53.568;13.266;2023-02-08T03:01:23;0.50;92.70
4425;DHT22;2225;53.568;13.266;2023-02-08T03:03:55;0.50;92.90
4425;DHT22;2225;53.568;13.266;2023-02-08T03:06:37;0.50;92.80
4425;DHT22;2225;53.568;13.266;2023-02-08T03:09:29;0.40;92.90
4425;DHT22;2225;53.568;13.266;2023-02-08T03:12:22;0.40;92.90
4425;DHT22;2225;53.568;13.266;2023-02-08T03:15:27;0.40;93.00
4425;DHT22;2225;53.568;13.266;2023-02-08T03:21:33;0.40;93.00
4425;DHT22;2225;53.568;13.266;2023-02-08T03:24:46;0.40;93.00
4425;DHT22;2225;53.568;13.266;2023-02-08T03:27:27;0.40;93.00
4425;DHT22;2225;53.568;13.266;2023-02-08T03:30:12;0.30;93.00
4425;DHT22;2225;53.568;13.266;2023-02-08T03:32:47;0.30;93.00
4425;DHT22;2225;53.568;13.266;2023-02-08T03:35:22;0.30;93.10
4425;DHT22;2225;53.568;13.266;2023-02-08T03:37:57;0.30;93.20
4425;DHT22;2225;53.568;13.266;2023-02-08T03:40:29;0.20;93.50
4425;DHT22;2225;53.568;13.266;2023-02-08T03:43:02;0.20;93.20
4425;DHT22;2225;53.568;13.266;2023-02-08T03:45:39;0.20;93.20
4425;DHT22;2225;53.568;13.266;2023-02-08T03:48:13;0.20;93.30
4425;DHT22;2225;53.568;13.266;2023-02-08T03:50:46;0.20;93.30
4425;DHT22;2225;53.568;13.266;2023-02-08T03:53:18;0.20;93.20
4425;DHT22;2225;53.568;13.266;2023-02-08T03:55:50;0.20;93.20
4425;DHT22;2225;53.568;13.266;2023-02-08T04:01:08;0.10;93.20
4425;DHT22;2225;53.568;13.266;2023-02-08T04:03:42;0.10;93.20
4425;DHT22;2225;53.568;13.266;2023-02-08T04:06:10;0.10;93.20
4425;DHT22;2225;53.568;13.266;2023-02-08T04:08:38;0.10;93.20
4425;DHT22;2225;53.568;13.266;2023-02-08T04:11:05;0.10;93.30
4425;DHT22;2225;53.568;13.266;2023-02-08T04:13:31;0.10;93.40
4425;DHT22;2225;53.568;13.266;2023-02-08T04:15:58;0.10;93.40
4425;DHT22;2225;53.568;13.266;2023-02-08T04:18:25;0.10;93.40
4425;DHT22;2225;53.568;13.266;2023-02-08T04:20:52;0.10;93.50
4425;DHT22;2225;53.568;13.266;2023-02-08T04:23:19;0.10;93.50
4425;DHT22;2225;53.568;13.266;2023-02-08T04:25:46;0.00;93.50
4425;DHT22;2225;53.568;13.266;2023-02-08T04:28:13;0.00;93.50
4425;DHT22;2225;53.568;13.266;2023-02-08T04:30:40;0.00;93.50
4425;DHT22;2225;53.568;13.266;2023-02-08T04:33:07;0.00;93.50
4425;DHT22;2225;53.568;13.266;2023-02-08T04:35:34;0.00;93.50
4425;DHT22;2225;53.568;13.266;2023-02-08T04:38:01;0.00;93.60
4425;DHT22;2225;53.568;13.266;2023-02-08T04:40:28;0.00;93.60
4425;DHT22;2225;53.568;13.266;2023-02-08T04:42:56;0.00;93.60
4425;DHT22;2225;53.568;13.266;2023-02-08T04:45:23;0.00;93.50
4425;DHT22;2225;53.568;13.266;2023-02-08T04:47:52;0.00;93.50
4425;DHT22;2225;53.568;13.266;2023-02-08T04:50:19;-0.10;93.50
4425;DHT22;2225;53.568;13.266;2023-02-08T04:52:46;-0.10;93.50
4425;DHT22;2225;53.568;13.266;2023-02-08T04:55:13;-0.10;93.60
4425;DHT22;2225;53.568;13.266;2023-02-08T04:57:40;-0.10;93.70
4425;DHT22;2225;53.568;13.266;2023-02-08T05:00:07;-0.10;93.70
4425;DHT22;2225;53.568;13.266;2023-02-08T05:02:34;-0.10;93.70
4425;DHT22;2225;53.568;13.266;2023-02-08T05:05:02;-0.10;93.70
4425;DHT22;2225;53.568;13.266;2023-02-08T05:07:29;-0.10;93.70
4425;DHT22;2225;53.568;13.266;2023-02-08T05:09:56;-0.10;94.00
4425;DHT22;2225;53.568;13.266;2023-02-08T05:12:23;-0.10;93.80
4425;DHT22;2225;53.568;13.266;2023-02-08T05:14:49;-0.10;93.70
4425;DHT22;2225;53.568;13.266;2023-02-08T05:17:16;-0.10;93.60
4425;DHT22;2225;53.568;13.266;2023-02-08T05:19:43;-0.10;93.60
4425;DHT22;2225;53.568;13.266;2023-02-08T05:22:10;-0.10;93.70
4425;DHT22;2225;53.568;13.266;2023-02-08T05:24:37;-0.10;93.70
4425;DHT22;2225;53.568;13.266;2023-02-08T05:27:04;-0.10;93.70
4425;DHT22;2225;53.568;13.266;2023-02-08T05:29:31;-0.20;93.70
4425;DHT22;2225;53.568;13.266;2023-02-08T05:31:58;-0.20;93.70
4425;DHT22;2225;53.568;13.266;2023-02-08T05:34:24;-0.20;93.80
4425;DHT22;2225;53.568;13.266;2023-02-08T05:36:51;-0.20;93.80
4425;DHT22;2225;53.568;13.266;2023-02-08T05:39:18;-0.20;93.70
4425;DHT22;2225;53.568;13.266;2023-02-08T05:41:45;-0.20;93.70
4425;DHT22;2225;53.568;13.266;2023-02-08T05:44:12;-0.20;93.80
4425;DHT22;2225;53.568;13.266;2023-02-08T05:46:39;-0.20;93.70
4425;DHT22;2225;53.568;13.266;2023-02-08T05:49:06;-0.20;93.70
4425;DHT22;2225;53.568;13.266;2023-02-08T05:51:33;-0.20;93.70
4425;DHT22;2225;53.568;13.266;2023-02-08T05:54:00;-0.30;93.70
4425;DHT22;2225;53.568;13.266;2023-02-08T05:56:27;-0.20;93.70
4425;DHT22;2225;53.568;13.266;2023-02-08T05:58:55;-0.20;93.70
4425;DHT22;2225;53.568;13.266;2023-02-08T06:01:22;-0.30;93.70
4425;DHT22;2225;53.568;13.266;2023-02-08T06:03:48;-0.30;93.60
4425;DHT22;2225;53.568;13.266;2023-02-08T06:06:15;-0.30;93.60
4425;DHT22;2225;53.568;13.266;2023-02-08T06:08:42;-0.30;93.50
4425;DHT22;2225;53.568;13.266;2023-02-08T06:11:09;-0.30;93.60
4425;DHT22;2225;53.568;13.266;2023-02-08T06:13:36;-0.30;93.60
4425;DHT22;2225;53.568;13.266;2023-02-08T06:16:05;-0.30;93.70
4425;DHT22;2225;53.568;13.266;2023-02-08T06:18:32;-0.30;93.80
4425;DHT22;2225;53.568;13.266;2023-02-08T06:20:59;-0.40;93.80
4425;DHT22;2225;53.568;13.266;2023-02-08T06:23:26;-0.30;93.80
4425;DHT22;2225;53.568;13.266;2023-02-08T06:25:53;-0.30;93.80
4425;DHT22;2225;53.568;13.266;2023-02-08T06:28:20;-0.30;93.80
4425;DHT22;2225;53.568;13.266;2023-02-08T06:30:50;-0.30;93.80
4425;DHT22;2225;53.568;13.266;2023-02-08T06:33:18;-0.30;93.80
4425;DHT22;2225;53.568;13.266;2023-02-08T06:35:46;-0.30;93.80
4425;DHT22;2225;53.568;13.266;2023-02-08T06:38:13;-0.30;93.80
4425;DHT22;2225;53.568;13.266;2023-02-08T06:40:40;-0.30;93.70
4425;DHT22;2225;53.568;13.266;2023-02-08T06:43:08;-0.30;93.80
4425;DHT22;2225;53.568;13.266;2023-02-08T06:45:35;-0.30;93.80
4425;DHT22;2225;53.568;13.266;2023-02-08T06:48:02;-0.30;93.80
4425;DHT22;2225;53.568;13.266;2023-02-08T06:50:29;-0.30;93.80
4425;DHT22;2225;53.568;13.266;2023-02-08T06:52:56;-0.30;93.80
4425;DHT22;2225;53.568;13.266;2023-02-08T06:55:23;-0.30;93.80
4425;DHT22;2225;53.568;13.266;2023-02-08T06:57:54;-0.30;93.90
4425;DHT22;2225;53.568;13.266;2023-02-08T07:00:21;-0.30;94.00
4425;DHT22;2225;53.568;13.266;2023-02-08T07:02:48;-0.30;94.00
4425;DHT22;2225;53.568;13.266;2023-02-08T07:05:15;-0.30;94.00
4425;DHT22;2225;53.568;13.266;2023-02-08T07:07:42;-0.30;94.10
4425;DHT22;2225;53.568;13.266;2023-02-08T07:10:09;-0.20;94.10
4425;DHT22;2225;53.568;13.266;2023-02-08T07:12:36;-0.20;94.10
4425;DHT22;2225;53.568;13.266;2023-02-08T07:15:04;-0.20;94.00
4425;DHT22;2225;53.568;13.266;2023-02-08T07:17:31;-0.20;94.10
4425;DHT22;2225;53.568;13.266;2023-02-08T07:19:57;-0.20;94.10
4425;DHT22;2225;53.568;13.266;2023-02-08T07:22:24;-0.20;94.10
4425;DHT22;2225;53.568;13.266;2023-02-08T07:24:51;-0.10;94.10
4425;DHT22;2225;53.568;13.266;2023-02-08T07:27:18;-0.10;94.20
4425;DHT22;2225;53.568;13.266;2023-02-08T07:29:45;-0.10;94.20
4425;DHT22;2225;53.568;13.266;2023-02-08T07:32:12;0.00;94.40
4425;DHT22;2225;53.568;13.266;2023-02-08T07:34:39;0.00;94.50
4425;DHT22;2225;53.568;13.266;2023-02-08T07:37:06;0.10;94.50
4425;DHT22;2225;53.568;13.266;2023-02-08T07:39:33;0.10;94.70
4425;DHT22;2225;53.568;13.266;2023-02-08T07:42:00;0.20;94.80
4425;DHT22;2225;53.568;13.266;2023-02-08T07:44:34;0.30;94.90
4425;DHT22;2225;53.568;13.266;2023-02-08T07:47:03;0.30;95.00
4425;DHT22;2225;53.568;13.266;2023-02-08T07:49:31;0.40;94.90
4425;DHT22;2225;53.568;13.266;2023-02-08T07:52:00;0.50;94.90
4425;DHT22;2225;53.568;13.266;2023-02-08T07:54:27;0.60;94.90
4425;DHT22;2225;53.568;13.266;2023-02-08T07:56:55;0.60;94.70
4425;DHT22;2225;53.568;13.266;2023-02-08T07:59:22;0.70;94.70
4425;DHT22;2225;53.568;13.266;2023-02-08T08:01:49;0.80;94.70
4425;DHT22;2225;53.568;13.266;2023-02-08T08:04:16;0.80;94.60
4425;DHT22;2225;53.568;13.266;2023-02-08T08:06:45;0.90;94.70
4425;DHT22;2225;53.568;13.266;2023-02-08T08:09:12;1.00;94.60
4425;DHT22;2225;53.568;13.266;2023-02-08T08:11:40;1.10;94.50
4425;DHT22;2225;53.568;13.266;2023-02-08T08:14:07;1.20;94.50
4425;DHT22;2225;53.568;13.266;2023-02-08T08:16:34;1.30;94.40
4425;DHT22;2225;53.568;13.266;2023-02-08T08:19:01;1.30;94.30
4425;DHT22;2225;53.568;13.266;2023-02-08T08:21:28;1.40;94.30
4425;DHT22;2225;53.568;13.266;2023-02-08T08:23:55;1.50;94.30
4425;DHT22;2225;53.568;13.266;2023-02-08T08:26:22;1.60;94.20
4425;DHT22;2225;53.568;13.266;2023-02-08T08:28:49;1.60;94.20
4425;DHT22;2225;53.568;13.266;2023-02-08T08:31:18;1.70;94.00
4425;DHT22;2225;53.568;13.266;2023-02-08T08:33:46;1.80;93.90
4425;DHT22;2225;53.568;13.266;2023-02-08T08:36:14;1.80;93.90
4425;DHT22;2225;53.568;13.266;2023-02-08T08:38:41;1.90;93.80
4425;DHT22;2225;53.568;13.266;2023-02-08T08:41:13;2.00;93.90
4425;DHT22;2225;53.568;13.266;2023-02-08T08:43:43;2.10;93.80
4425;DHT22;2225;53.568;13.266;2023-02-08T08:46:10;2.10;93.80
4425;DHT22;2225;53.568;13.266;2023-02-08T08:48:38;2.20;93.80
4425;DHT22;2225;53.568;13.266;2023-02-08T08:51:05;2.30;93.60
4425;DHT22;2225;53.568;13.266;2023-02-08T08:53:33;2.40;93.40
4425;DHT22;2225;53.568;13.266;2023-02-08T08:56:00;2.50;93.40
4425;DHT22;2225;53.568;13.266;2023-02-08T08:58:27;2.50;93.40
4425;DHT22;2225;53.568;13.266;2023-02-08T09:00:58;2.60;93.30
4425;DHT22;2225;53.568;13.266;2023-02-08T09:03:27;2.70;93.20
4425;DHT22;2225;53.568;13.266;2023-02-08T09:05:54;2.70;93.20
4425;DHT22;2225;53.568;13.266;2023-02-08T09:08:21;2.80;93.20
4425;DHT22;2225;53.568;13.266;2023-02-08T09:10:48;2.90;92.20
4425;DHT22;2225;53.568;13.266;2023-02-08T09:13:16;2.90;92.30
4425;DHT22;2225;53.568;13.266;2023-02-08T09:15:46;2.90;92.20
4425;DHT22;2225;53.568;13.266;2023-02-08T09:18:13;3.00;92.00
4425;DHT22;2225;53.568;13.266;2023-02-08T09:20:40;3.00;92.10
4425;DHT22;2225;53.568;13.266;2023-02-08T09:23:08;3.10;91.90
4425;DHT22;2225;53.568;13.266;2023-02-08T09:25:35;3.20;91.70
4425;DHT22;2225;53.568;13.266;2023-02-08T09:28:03;3.20;91.70
4425;DHT22;2225;53.568;13.266;2023-02-08T09:30:31;3.30;91.80
4425;DHT22;2225;53.568;13.266;2023-02-08T09:32:58;3.30;91.80
4425;DHT22;2225;53.568;13.266;2023-02-08T09:35:25;3.40;91.40
4425;DHT22;2225;53.568;13.266;2023-02-08T09:37:53;3.50;91.20
4425;DHT22;2225;53.568;13.266;2023-02-08T09:40:23;3.50;91.10
4425;DHT22;2225;53.568;13.266;2023-02-08T09:43:17;3.60;90.60
4425;DHT22;2225;53.568;13.266;2023-02-08T09:46:15;3.60;90.90
4425;DHT22;2225;53.568;13.266;2023-02-08T09:48:44;3.70;90.30
4425;DHT22;2225;53.568;13.266;2023-02-08T09:51:28;3.70;90.20
4425;DHT22;2225;53.568;13.266;2023-02-08T09:54:23;3.70;90.10
4425;DHT22;2225;53.568;13.266;2023-02-08T09:56:50;3.70;90.10
4425;DHT22;2225;53.568;13.266;2023-02-08T09:59:38;3.70;90.40
4425;DHT22;2225;53.568;13.266;2023-02-08T10:02:18;3.70;90.10
4425;DHT22;2225;53.568;13.266;2023-02-08T10:05:08;3.80;90.00
4425;DHT22;2225;53.568;13.266;2023-02-08T10:07:38;3.80;90.20
4425;DHT22;2225;53.568;13.266;2023-02-08T10:10:13;3.90;90.40
4425;DHT22;2225;53.568;13.266;2023-02-08T10:13:21;3.90;90.30
4425;DHT22;2225;53.568;13.266;2023-02-08T10:16:12;4.00;90.10
4425;DHT22;2225;53.568;13.266;2023-02-08T10:19:04;4.10;90.10
4425;DHT22;2225;53.568;13.266;2023-02-08T10:22:03;4.10;89.40
4425;DHT22;2225;53.568;13.266;2023-02-08T10:25:13;4.10;89.10
4425;DHT22;2225;53.568;13.266;2023-02-08T10:34:01;4.40;89.60
4425;DHT22;2225;53.568;13.266;2023-02-08T10:36:35;4.50;88.70
4425;DHT22;2225;53.568;13.266;2023-02-08T10:39:19;4.50;88.80
4425;DHT22;2225;53.568;13.266;2023-02-08T10:41:50;4.60;89.00
4425;DHT22;2225;53.568;13.266;2023-02-08T10:44:33;4.60;89.60
4425;DHT22;2225;53.568;13.266;2023-02-08T10:47:16;4.70;89.50
4425;DHT22;2225;53.568;13.266;2023-02-08T10:49:54;4.80;88.80
4425;DHT22;2225;53.568;13.266;2023-02-08T10:52:24;4.80;87.80
4425;DHT22;2225;53.568;13.266;2023-02-08T10:54:52;4.80;87.80
4425;DHT22;2225;53.568;13.266;2023-02-08T10:57:23;4.80;87.90
4425;DHT22;2225;53.568;13.266;2023-02-08T11:00:15;4.90;87.20
4425;DHT22;2225;53.568;13.266;2023-02-08T11:02:45;4.90;86.90
4425;DHT22;2225;53.568;13.266;2023-02-08T11:05:33;4.90;86.00
4425;DHT22;2225;53.568;13.266;2023-02-08T11:08:16;4.80;85.90
4425;DHT22;2225;53.568;13.266;2023-02-08T11:10:58;4.90;87.10
4425;DHT22;2225;53.568;13.266;2023-02-08T11:13:39;4.80;85.90
4425;DHT22;2225;53.568;13.266;2023-02-08T11:16:10;4.90;86.40
4425;DHT22;2225;53.568;13.266;2023-02-08T11:18:46;4.90;85.70
4425;DHT22;2225;53.568;13.266;2023-02-08T11:21:32;4.90;86.10
4425;DHT22;2225;53.568;13.266;2023-02-08T11:27:47;4.90;85.30
4425;DHT22;2225;53.568;13.266;2023-02-08T11:30:19;4.90;85.10
4425;DHT22;2225;53.568;13.266;2023-02-08T11:33:12;4.90;85.60
4425;DHT22;2225;53.568;13.266;2023-02-08T11:35:41;4.90;85.60
4425;DHT22;2225;53.568;13.266;2023-02-08T11:38:17;5.00;86.00
4425;DHT22;2225;53.568;13.266;2023-02-08T11:40:45;5.00;85.80
4425;DHT22;2225;53.568;13.266;2023-02-08T11:43:24;5.00;85.60
4425;DHT22;2225;53.568;13.266;2023-02-08T11:45:57;5.10;85.70
4425;DHT22;2225;53.568;13.266;2023-02-08T11:48:34;5.10;86.20
4425;DHT22;2225;53.568;13.266;2023-02-08T11:51:05;5.10;85.40
4425;DHT22;2225;53.568;13.266;2023-02-08T11:53:35;5.10;85.30
4425;DHT22;2225;53.568;13.266;2023-02-08T11:56:22;5.20;85.40
4425;DHT22;2225;53.568;13.266;2023-02-08T11:59:01;5.20;85.70
4425;DHT22;2225;53.568;13.266;2023-02-08T12:01:36;5.20;85.80
4425;DHT22;2225;53.568;13.266;2023-02-08T12:04:10;5.30;86.60
4425;DHT22;2225;53.568;13.266;2023-02-08T12:06:48;5.30;85.20
4425;DHT22;2225;53.568;13.266;2023-02-08T12:09:52;5.30;85.00
4425;DHT22;2225;53.568;13.266;2023-02-08T12:16:02;5.40;85.40
4425;DHT22;2225;53.568;13.266;2023-02-08T12:21:34;5.50;85.70
4425;DHT22;2225;53.568;13.266;2023-02-08T12:24:16;5.60;85.40
4425;DHT22;2225;53.568;13.266;2023-02-08T12:27:19;5.60;86.10
4425;DHT22;2225;53.568;13.266;2023-02-08T12:33:35;5.80;85.40
4425;DHT22;2225;53.568;13.266;2023-02-08T12:39:51;5.90;84.70
4425;DHT22;2225;53.568;13.266;2023-02-08T12:42:53;5.90;85.10
4425;DHT22;2225;53.568;13.266;2023-02-08T12:48:39;6.00;85.00
4425;DHT22;2225;53.568;13.266;2023-02-08T12:54:26;6.10;84.60
4425;DHT22;2225;53.568;13.266;2023-02-08T12:56:57;6.10;84.30
4425;DHT22;2225;53.568;13.266;2023-02-08T12:59:46;6.20;84.70
4425;DHT22;2225;53.568;13.266;2023-02-08T13:02:20;6.20;84.90
4425;DHT22;2225;53.568;13.266;2023-02-08T13:04:52;6.30;84.60
4425;DHT22;2225;53.568;13.266;2023-02-08T13:07:28;6.20;83.20
4425;DHT22;2225;53.568;13.266;2023-02-08T13:10:32;6.30;83.80
4425;DHT22;2225;53.568;13.266;2023-02-08T13:13:24;6.30;82.60
4425;DHT22;2225;53.568;13.266;2023-02-08T13:16:04;6.30;80.80
4425;DHT22;2225;53.568;13.266;2023-02-08T13:18:43;6.20;81.60
4425;DHT22;2225;53.568;13.266;2023-02-08T13:21:18;6.20;81.30
4425;DHT22;2225;53.568;13.266;2023-02-08T13:23:49;6.20;82.60
4425;DHT22;2225;53.568;13.266;2023-02-08T13:26:25;6.20;82.00
4425;DHT22;2225;53.568;13.266;2023-02-08T13:28:56;6.20;81.60
4425;DHT22;2225;53.568;13.266;2023-02-08T13:31:38;6.20;80.70
4425;DHT22;2225;53.568;13.266;2023-02-08T13:34:43;6.10;80.00
4425;DHT22;2225;53.568;13.266;2023-02-08T13:37:25;6.10;80.50
4425;DHT22;2225;53.568;13.266;2023-02-08T13:40:04;6.10;81.50
4425;DHT22;2225;53.568;13.266;2023-02-08T13:42:36;6.10;81.90
4425;DHT22;2225;53.568;13.266;2023-02-08T13:45:09;6.20;82.10
4425;DHT22;2225;53.568;13.266;2023-02-08T13:47:56;6.20;82.00
4425;DHT22;2225;53.568;13.266;2023-02-08T13:50:38;6.30;82.10
4425;DHT22;2225;53.568;13.266;2023-02-08T13:53:18;6.30;80.60
4425;DHT22;2225;53.568;13.266;2023-02-08T13:56:08;6.30;80.10
4425;DHT22;2225;53.568;13.266;2023-02-08T14:01:24;6.30;81.10
4425;DHT22;2225;53.568;13.266;2023-02-08T14:04:16;6.30;80.90
4425;DHT22;2225;53.568;13.266;2023-02-08T14:06:49;6.30;80.30
4425;DHT22;2225;53.568;13.266;2023-02-08T14:09:35;6.30;80.70
4425;DHT22;2225;53.568;13.266;2023-02-08T14:12:34;6.30;80.90
4425;DHT22;2225;53.568;13.266;2023-02-08T14:17:45;6.40;80.40
4425;DHT22;2225;53.568;13.266;2023-02-08T14:20:38;6.40;80.90
4425;DHT22;2225;53.568;13.266;2023-02-08T14:23:25;6.40;80.60
4425;DHT22;2225;53.568;13.266;2023-02-08T14:25:54;6.40;80.90
4425;DHT22;2225;53.568;13.266;2023-02-08T14:28:32;6.40;80.70
4425;DHT22;2225;53.568;13.266;2023-02-08T14:31:09;6.40;80.10
4425;DHT22;2225;53.568;13.266;2023-02-08T14:33:41;6.40;79.30
4425;DHT22;2225;53.568;13.266;2023-02-08T14:36:28;6.40;78.50
4425;DHT22;2225;53.568;13.266;2023-02-08T14:39:19;6.30;78.60
4425;DHT22;2225;53.568;13.266;2023-02-08T14:41:56;6.30;79.00
4425;DHT22;2225;53.568;13.266;2023-02-08T14:47:50;6.10;78.80
4425;DHT22;2225;53.568;13.266;2023-02-08T14:52:50;6.10;79.80
4425;DHT22;2225;53.568;13.266;2023-02-08T14:56:01;6.00;79.30
4425;DHT22;2225;53.568;13.266;2023-02-08T14:58:40;6.00;79.70
4425;DHT22;2225;53.568;13.266;2023-02-08T15:01:19;5.90;79.80
4425;DHT22;2225;53.568;13.266;2023-02-08T15:03:59;5.90;79.80
4425;DHT22;2225;53.568;13.266;2023-02-08T15:09:24;5.90;80.10
4425;DHT22;2225;53.568;13.266;2023-02-08T15:12:04;5.90;80.20
4425;DHT22;2225;53.568;13.266;2023-02-08T15:14:54;5.90;81.60
4425;DHT22;2225;53.568;13.266;2023-02-08T15:17:40;5.90;80.60
4425;DHT22;2225;53.568;13.266;2023-02-08T15:20:21;5.80;80.20
4425;DHT22;2225;53.568;13.266;2023-02-08T15:23:20;5.70;80.60
4425;DHT22;2225;53.568;13.266;2023-02-08T15:25:57;5.80;81.00
4425;DHT22;2225;53.568;13.266;2023-02-08T15:28:30;5.80;80.90
4425;DHT22;2225;53.568;13.266;2023-02-08T15:31:06;5.80;80.90
4425;DHT22;2225;53.568;13.266;2023-02-08T15:33:38;5.70;81.10
4425;DHT22;2225;53.568;13.266;2023-02-08T15:36:12;5.70;81.40
4425;DHT22;2225;53.568;13.266;2023-02-08T15:38:41;5.70;81.10
4425;DHT22;2225;53.568;13.266;2023-02-08T15:41:15;5.70;81.30
4425;DHT22;2225;53.568;13.266;2023-02-08T15:43:50;5.70;81.30
4425;DHT22;2225;53.568;13.266;2023-02-08T15:46:22;5.60;81.20
4425;DHT22;2225;53.568;13.266;2023-02-08T15:48:52;5.60;81.20
4425;DHT22;2225;53.568;13.266;2023-02-08T15:51:20;5.60;81.30
4425;DHT22;2225;53.568;13.266;2023-02-08T15:53:51;5.50;81.50
4425;DHT22;2225;53.568;13.266;2023-02-08T15:56:32;5.50;81.40
4425;DHT22;2225;53.568;13.266;2023-02-08T15:59:06;5.50;81.80
4425;DHT22;2225;53.568;13.266;2023-02-08T16:01:40;5.40;81.70
4425;DHT22;2225;53.568;13.266;2023-02-08T16:04:12;5.40;81.80
4425;DHT22;2225;53.568;13.266;2023-02-08T16:06:45;5.30;81.80
4425;DHT22;2225;53.568;13.266;2023-02-08T16:09:23;5.30;81.90
4425;DHT22;2225;53.568;13.266;2023-02-08T16:11:58;5.30;82.00
4425;DHT22;2225;53.568;13.266;2023-02-08T16:14:26;5.20;82.80
4425;DHT22;2225;53.568;13.266;2023-02-08T16:16:57;5.20;82.10
4425;DHT22;2225;53.568;13.266;2023-02-08T16:19:26;5.10;82.10
4425;DHT22;2225;53.568;13.266;2023-02-08T16:24:38;5.00;82.30
4425;DHT22;2225;53.568;13.266;2023-02-08T16:27:14;5.00;82.50
4425;DHT22;2225;53.568;13.266;2023-02-08T16:29:46;4.90;82.40
4425;DHT22;2225;53.568;13.266;2023-02-08T16:32:32;4.90;82.50
4425;DHT22;2225;53.568;13.266;2023-02-08T16:35:22;4.80;82.40
4425;DHT22;2225;53.568;13.266;2023-02-08T16:37:58;4.80;82.60
4425;DHT22;2225;53.568;13.266;2023-02-08T16:46:16;4.60;82.90
4425;DHT22;2225;53.568;13.266;2023-02-08T16:48:56;4.60;83.20
4425;DHT22;2225;53.568;13.266;2023-02-08T16:51:24;4.50;83.20
4425;DHT22;2225;53.568;13.266;2023-02-08T16:53:55;4.50;83.30
4425;DHT22;2225;53.568;13.266;2023-02-08T16:56:26;4.50;83.40
4425;DHT22;2225;53.568;13.266;2023-02-08T16:58:53;4.40;83.40
4425;DHT22;2225;53.568;13.266;2023-02-08T17:01:21;4.40;83.50
4425;DHT22;2225;53.568;13.266;2023-02-08T17:03:49;4.40;83.70
4425;DHT22;2225;53.568;13.266;2023-02-08T17:08:59;4.30;83.90
4425;DHT22;2225;53.568;13.266;2023-02-08T17:11:27;4.20;84.00
4425;DHT22;2225;53.568;13.266;2023-02-08T17:13:55;4.20;84.10
4425;DHT22;2225;53.568;13.266;2023-02-08T17:16:26;4.10;84.30
4425;DHT22;2225;53.568;13.266;2023-02-08T17:18:54;4.10;84.50
4425;DHT22;2225;53.568;13.266;2023-02-08T17:21:22;4.00;84.60
4425;DHT22;2225;53.568;13.266;2023-02-08T17:23:49;4.00;84.80
4425;DHT22;2225;53.568;13.266;2023-02-08T17:26:19;3.90;84.80
4425;DHT22;2225;53.568;13.266;2023-02-08T17:28:49;3.90;84.90
4425;DHT22;2225;53.568;13.266;2023-02-08T17:31:15;3.90;85.00
4425;DHT22;2225;53.568;13.266;2023-02-08T17:33:43;3.90;85.00
4425;DHT22;2225;53.568;13.266;2023-02-08T17:36:12;3.90;85.00
4425;DHT22;2225;53.568;13.266;2023-02-08T17:38:41;3.80;85.10
4425;DHT22;2225;53.568;13.266;2023-02-08T17:41:12;3.80;85.00
4425;DHT22;2225;53.568;13.266;2023-02-08T17:43:41;3.80;85.20
4425;DHT22;2225;53.568;13.266;2023-02-08T17:46:14;3.70;85.20
4425;DHT22;2225;53.568;13.266;2023-02-08T17:48:43;3.70;85.40
4425;DHT22;2225;53.568;13.266;2023-02-08T17:51:16;3.70;85.50
4425;DHT22;2225;53.568;13.266;2023-02-08T17:53:44;3.70;85.50
4425;DHT22;2225;53.568;13.266;2023-02-08T17:56:14;3.60;85.50
4425;DHT22;2225;53.568;13.266;2023-02-08T17:58:43;3.60;85.70
4425;DHT22;2225;53.568;13.266;2023-02-08T18:01:14;3.60;85.80
4425;DHT22;2225;53.568;13.266;2023-02-08T18:03:44;3.60;86.00
4425;DHT22;2225;53.568;13.266;2023-02-08T18:06:12;3.60;86.10